Terminal Aerodrome Forecast
Issued by NWS Cleveland, OH

Home | Current Version | Previous Version | Text Only | Print | Product List | Glossary Off
Versions: 1 2 3 4 5 6 7 8 9 10 11 12 13 14 15

776
FTUS41 KCLE 221730
TAFMFD
TAF
KMFD 221730Z 2218/2318 31008KT P6SM OVC030
     FM222000 30008KT P6SM OVC035
     FM222300 26003KT P6SM SCT035
     FM231000 20008KT P6SM BKN035 OVC100=

USA.gov is the U.S. government's official web portal to all federal, state and local government web resources and services.